Terminal Aerodrome Forecast
Issued by NWS

Home | Current Version | Previous Version | Text Only | Print | Product List | Glossary On
Versions: 1 2 3 4 5 6 7 8 9 10 11 12 13 14
000
FTUS45 KTFX 272300
TAFLWT
TAF
KLWT 272320Z 2800/2824 VRB06KT P6SM SKC
     FM281200 11006KT P6SM SCT180
     FM281900 11006KT P6SM BKN180=

USA.gov is the U.S. government's official web portal to all federal, state and local government web resources and services.